Time;durP1;ratioP1;P1;durP2;ratioP2;P2;SDS_P1;SDS_P2;PMS_P1;PMS_P2;Temp;Humidity;BMP_temperature;BMP_pressure;BME280_temperature;BME280_humidity;BME280_pressure;Samples;Min_cycle;Max_cycle;Signal;HPM_P1;HPM_P2
2023/04/01 00:01:13;;;;;;;0.60;0.60;;;;;;;7.50;78.58;96230.75;5024033;28;20116;-56
2023/04/01 00:03:40;;;;;;;0.55;0.55;;;;;;;7.55;80.55;96246.97;5024284;28;20053;-60
2023/04/01 00:06:11;;;;;;;0.60;0.60;;;;;;;7.61;80.68;96242.72;5013042;28;20046;-60
2023/04/01 00:08:37;;;;;;;0.60;0.60;;;;;;;7.62;80.00;96239.59;5004172;28;20152;-60
2023/04/01 00:11:05;;;;;;;0.60;0.60;;;;;;;7.77;79.61;96239.81;5003212;28;20164;-60
2023/04/01 00:13:32;;;;;;;0.70;0.70;;;;;;;7.68;79.34;96209.78;5004468;28;20104;-61
2023/04/01 00:15:59;;;;;;;0.60;0.60;;;;;;;7.70;79.16;96224.75;5004393;28;20583;-58
2023/04/01 00:18:26;;;;;;;0.60;0.60;;;;;;;7.59;80.22;96232.09;5008830;28;20053;-56
2023/04/01 00:20:53;;;;;;;0.60;0.60;;;;;;;7.25;79.87;96168.97;5008042;28;20054;-56
2023/04/01 00:23:20;;;;;;;0.55;0.55;;;;;;;7.60;80.30;96230.13;5006608;28;20050;-61
2023/04/01 00:25:49;;;;;;;0.60;0.60;;;;;;;7.53;80.12;96230.00;5023028;28;20120;-61
2023/04/01 00:28:17;;;;;;;0.60;0.60;;;;;;;7.50;80.43;96242.56;5006922;28;20068;-62
2023/04/01 00:30:44;;;;;;;0.55;0.55;;;;;;;7.46;80.59;96225.19;5007926;28;20543;-57
2023/04/01 00:33:10;;;;;;;0.60;0.60;;;;;;;7.24;80.28;96183.91;5008308;28;20112;-60
2023/04/01 00:35:38;;;;;;;0.60;0.60;;;;;;;7.58;80.85;96225.00;5007889;28;20164;-57
2023/04/01 00:38:06;;;;;;;0.60;0.60;;;;;;;7.49;81.94;96227.19;5008050;28;20670;-60
2023/04/01 00:40:42;;;;;;;0.50;0.50;;;;;;;7.32;81.66;96191.09;5006196;28;20468;-61
2023/04/01 00:43:12;;;;;;;0.60;0.60;;;;;;;7.55;81.20;96208.41;5007964;28;20057;-57
2023/04/01 00:45:42;;;;;;;0.60;0.60;;;;;;;7.65;81.41;96222.31;5007637;28;20457;-57
2023/04/01 00:48:14;;;;;;;0.60;0.60;;;;;;;7.62;82.03;96216.75;5007976;28;20476;-61
2023/04/01 00:50:45;;;;;;;0.70;0.70;;;;;;;7.48;81.95;96205.53;5007976;28;20054;-57
2023/04/01 00:53:13;;;;;;;0.60;0.60;;;;;;;7.47;81.82;96204.75;5007714;28;20516;-57
2023/04/01 00:55:45;;;;;;;0.60;0.60;;;;;;;7.50;83.72;96195.75;5007176;28;20050;-61
2023/04/01 00:58:15;;;;;;;0.60;0.60;;;;;;;7.63;82.38;96202.59;5007994;28;20558;-61
2023/04/01 01:00:43;;;;;;;0.60;0.60;;;;;;;7.01;82.12;96082.06;5007106;28;20057;-58
2023/04/01 01:03:09;;;;;;;0.68;0.68;;;;;;;7.73;82.30;96196.47;5007882;28;20069;-61
2023/04/01 01:05:57;;;;;;;0.60;0.60;;;;;;;7.81;81.96;96167.03;5013595;28;20053;-62
2023/04/01 01:08:30;;;;;;;0.60;0.60;;;;;;;7.70;82.89;96168.84;5026841;28;20069;-58
2023/04/01 01:10:56;;;;;;;0.60;0.60;;;;;;;7.71;82.07;96162.94;5025551;28;20607;-61
2023/04/01 01:14:04;;;;;;;0.57;0.57;;;;;;;7.58;82.10;96156.09;5025711;28;20041;-57
2023/04/01 01:16:37;;;;;;;0.60;0.60;;;;;;;7.60;81.93;96170.28;5014422;28;20053;-57
2023/04/01 01:19:10;;;;;;;0.50;0.50;;;;;;;7.72;81.04;96177.53;5013751;28;20064;-60
2023/04/01 01:22:29;;;;;;;0.60;0.60;;;;;;;7.29;82.82;96165.09;5007617;28;20132;-61
2023/04/01 01:25:13;;;;;;;0.50;0.50;;;;;;;7.25;82.74;96163.47;4984355;28;20116;-61
2023/04/01 01:27:46;;;;;;;0.60;0.60;;;;;;;7.39;82.64;96147.94;5006690;28;20461;-57
2023/04/01 01:30:48;;;;;;;0.65;0.65;;;;;;;7.60;81.91;96159.25;5006461;28;20065;-62
2023/04/01 01:33:39;;;;;;;0.60;0.60;;;;;;;7.54;82.11;96165.47;4992737;28;20093;-61
2023/04/01 01:36:10;;;;;;;0.60;0.60;;;;;;;7.49;81.26;96157.53;5006575;28;20579;-58
2023/04/01 01:38:37;;;;;;;0.52;0.52;;;;;;;7.53;81.85;96164.69;5005564;28;20129;-58
2023/04/01 01:41:07;;;;;;;0.55;0.55;;;;;;;7.66;81.83;96160.53;5006418;28;20159;-56
2023/04/01 01:43:38;;;;;;;0.60;0.60;;;;;;;7.65;82.07;96150.66;5006563;28;20050;-57
2023/04/01 01:46:10;;;;;;;0.63;0.63;;;;;;;7.16;82.20;96100.38;5006442;28;20057;-58
2023/04/01 01:48:38;;;;;;;0.50;0.50;;;;;;;7.49;82.34;96141.78;5006673;28;20867;-56
2023/04/01 01:51:06;;;;;;;0.50;0.50;;;;;;;7.60;82.06;96159.25;5006217;28;20476;-57
2023/04/01 01:53:32;;;;;;;0.60;0.60;;;;;;;7.65;82.59;96158.94;5006525;28;20136;-60
2023/04/01 01:55:59;;;;;;;0.60;0.60;;;;;;;7.70;82.37;96153.09;5006419;28;20050;-56
2023/04/01 01:58:34;;;;;;;0.68;0.68;;;;;;;7.82;81.36;96148.53;5006337;28;20188;-58
2023/04/01 02:01:05;;;;;;;0.60;0.60;;;;;;;7.81;81.07;96124.91;5005997;28;20057;-56
2023/04/01 02:03:36;;;;;;;0.60;0.60;;;;;;;7.84;81.68;96140.69;5006556;28;20104;-57
2023/04/01 02:06:08;;;;;;;0.60;0.60;;;;;;;7.59;82.32;96112.78;5014326;28;20491;-61
2023/04/01 02:08:51;;;;;;;0.60;0.60;;;;;;;7.49;84.26;96119.75;5024283;28;20148;-57
2023/04/01 02:11:25;;;;;;;0.60;0.60;;;;;;;7.33;84.11;96072.28;5025785;28;20496;-57
2023/04/01 02:13:58;;;;;;;0.52;0.52;;;;;;;7.60;83.76;96115.16;5024460;28;20088;-57
2023/04/01 02:16:52;;;;;;;0.60;0.60;;;;;;;7.58;84.14;96112.00;5025968;28;20073;-61
2023/04/01 02:19:24;;;;;;;0.60;0.60;;;;;;;7.32;84.07;96054.19;5025938;28;20057;-57
2023/04/01 02:21:56;;;;;;;0.50;0.50;;;;;;;5.30;86.43;95932.22;5024279;28;20444;-60
2023/04/01 02:24:26;;;;;;;0.50;0.50;;;;;;;5.92;91.78;96123.38;5025731;28;20057;-60
2023/04/01 02:26:53;;;;;;;0.60;0.60;;;;;;;6.38;88.89;96108.56;5024151;28;20053;-57
2023/04/01 02:29:21;;;;;;;0.50;0.50;;;;;;;6.54;87.75;96111.97;5025648;28;20493;-56
2023/04/01 02:31:50;;;;;;;0.50;0.50;;;;;;;6.68;87.17;96116.91;5025367;28;20175;-56
2023/04/01 02:34:18;;;;;;;0.50;0.50;;;;;;;6.63;86.95;96115.28;5025468;28;20058;-57
2023/04/01 02:36:45;;;;;;;0.60;0.60;;;;;;;6.61;85.88;96079.06;5025280;28;20045;-56
2023/04/01 02:39:13;;;;;;;0.60;0.60;;;;;;;6.96;84.94;96123.69;5022739;28;20136;-57
2023/04/01 02:41:41;;;;;;;0.60;0.60;;;;;;;6.78;85.52;96128.09;5025340;28;20053;-61
2023/04/01 02:44:09;;;;;;;0.50;0.50;;;;;;;6.79;84.94;96128.91;5025724;28;20049;-61
2023/04/01 02:46:36;;;;;;;0.60;0.60;;;;;;;6.82;84.70;96128.97;5025244;28;20126;-57
2023/04/01 02:49:03;;;;;;;0.50;0.50;;;;;;;3.79;85.27;95671.53;5025402;28;20080;-57
2023/04/01 02:51:30;;;;;;;0.50;0.50;;;;;;;6.34;85.59;96036.19;5023626;28;20428;-59
2023/04/01 02:53:58;;;;;;;0.50;0.50;;;;;;;6.81;87.08;96110.84;5024829;28;20516;-58
2023/04/01 02:56:25;;;;;;;0.60;0.60;;;;;;;6.88;88.62;96116.47;5025447;28;20433;-57
2023/04/01 02:58:53;;;;;;;0.50;0.50;;;;;;;6.81;87.74;96116.34;5024844;28;20503;-60
2023/04/01 03:01:21;;;;;;;0.52;0.52;;;;;;;5.81;90.15;96111.34;5024620;28;20053;-57
2023/04/01 03:03:47;;;;;;;0.50;0.50;;;;;;;5.97;91.42;96117.59;5023066;28;20228;-61
2023/04/01 03:06:15;;;;;;;0.50;0.50;;;;;;;6.17;90.56;96119.16;5013893;28;20046;-57
2023/04/01 03:08:42;;;;;;;0.52;0.52;;;;;;;6.35;89.27;96103.78;5004623;28;20139;-57
2023/04/01 03:11:10;;;;;;;0.55;0.55;;;;;;;6.47;89.94;96111.84;5004521;28;20088;-57
2023/04/01 03:13:37;;;;;;;0.50;0.50;;;;;;;6.35;90.55;96081.78;5004582;28;20528;-61
2023/04/01 03:16:05;;;;;;;0.57;0.57;;;;;;;4.11;89.07;95692.09;5003520;28;20084;-59
2023/04/01 03:18:31;;;;;;;0.50;0.50;;;;;;;6.78;88.52;96078.56;5004878;28;20056;-60
2023/04/01 03:21:12;;;;;;;0.55;0.55;;;;;;;7.16;87.97;96099.59;5004956;28;20638;-56
2023/04/01 03:23:39;;;;;;;0.50;0.50;;;;;;;7.17;87.80;96098.44;5004754;28;20132;-60
2023/04/01 03:26:05;;;;;;;0.50;0.50;;;;;;;6.73;87.81;96021.09;5003124;28;20053;-57
2023/04/01 03:28:32;;;;;;;0.60;0.60;;;;;;;7.37;86.98;96100.69;5004314;28;20061;-60
2023/04/01 03:30:59;;;;;;;0.50;0.50;;;;;;;7.40;84.93;96104.66;5004802;28;20150;-57
2023/04/01 03:33:25;;;;;;;0.50;0.50;;;;;;;7.11;84.41;96099.91;5004765;28;20057;-56
2023/04/01 03:35:52;;;;;;;0.50;0.50;;;;;;;6.19;88.84;96111.34;5003350;28;20144;-60
2023/04/01 03:38:19;;;;;;;0.50;0.50;;;;;;;4.77;89.81;95908.44;5019413;28;20058;-59
2023/04/01 03:40:45;;;;;;;0.50;0.50;;;;;;;5.86;88.76;96032.19;5005100;28;20111;-56
2023/04/01 03:43:12;;;;;;;0.50;0.50;;;;;;;6.41;87.63;96107.81;5002732;28;20093;-58
2023/04/01 03:45:50;;;;;;;0.52;0.52;;;;;;;6.49;87.35;96093.03;5004641;28;20115;-59
2023/04/01 03:48:17;;;;;;;0.50;0.50;;;;;;;5.89;88.01;96036.97;5019408;28;20079;-60
2023/04/01 03:50:44;;;;;;;0.50;0.50;;;;;;;6.12;89.35;96106.50;5004125;28;20077;-56
2023/04/01 03:53:11;;;;;;;0.55;0.55;;;;;;;6.29;88.78;96088.75;5004534;28;20085;-60
2023/04/01 03:55:38;;;;;;;0.50;0.50;;;;;;;6.45;88.23;96097.66;5004422;28;20103;-59
2023/04/01 03:58:05;;;;;;;0.60;0.60;;;;;;;6.61;86.72;96095.56;5004419;28;20089;-61
2023/04/01 04:00:33;;;;;;;0.52;0.52;;;;;;;6.67;86.12;96105.09;5004193;28;20089;-61
2023/04/01 04:03:00;;;;;;;0.60;0.60;;;;;;;6.47;85.96;96092.59;5004394;28;20046;-56
2023/04/01 04:05:27;;;;;;;0.60;0.60;;;;;;;6.33;87.71;96095.09;5004059;28;20054;-60
2023/04/01 04:07:55;;;;;;;0.60;0.60;;;;;;;5.00;86.33;95834.41;5022134;28;20057;-60
2023/04/01 04:10:23;;;;;;;0.50;0.50;;;;;;;6.75;86.08;96101.31;5022900;28;20049;-61
2023/04/01 04:12:50;;;;;;;0.60;0.60;;;;;;;6.71;87.21;96102.41;5024134;28;20053;-60
2023/04/01 04:15:17;;;;;;;0.50;0.50;;;;;;;6.83;87.60;96094.75;5023919;28;20482;-59
2023/04/01 04:17:47;;;;;;;0.50;0.50;;;;;;;6.64;86.80;96045.31;5024140;28;20056;-58
2023/04/01 04:20:14;;;;;;;0.60;0.60;;;;;;;7.15;86.68;96093.28;5022946;28;20057;-59
2023/04/01 04:22:41;;;;;;;0.60;0.60;;;;;;;7.23;86.80;96092.25;5023534;28;20049;-60
2023/04/01 04:25:08;;;;;;;0.60;0.60;;;;;;;4.57;86.71;95652.63;5022644;28;20501;-61
2023/04/01 04:27:35;;;;;;;0.60;0.60;;;;;;;7.42;87.34;96097.63;5023950;28;20107;-60
2023/04/01 04:30:03;;;;;;;0.60;0.60;;;;;;;7.39;87.05;96092.84;5038547;28;20046;-60
2023/04/01 04:32:30;;;;;;;0.60;0.60;;;;;;;7.07;87.73;96017.25;5023545;28;20140;-57
2023/04/01 04:34:56;;;;;;;0.60;0.60;;;;;;;7.11;87.60;96031.84;5023665;28;20142;-61
2023/04/01 04:37:23;;;;;;;0.60;0.60;;;;;;;7.71;86.24;96083.03;5023984;28;20061;-57
2023/04/01 04:39:50;;;;;;;0.60;0.60;;;;;;;7.32;85.87;96023.09;5023347;28;20046;-59
2023/04/01 04:42:16;;;;;;;0.60;0.60;;;;;;;7.77;85.76;96077.19;5023754;28;20119;-59
2023/04/01 04:44:43;;;;;;;0.50;0.50;;;;;;;7.81;84.52;96075.28;5023650;28;20099;-57
2023/04/01 04:47:10;;;;;;;0.60;0.60;;;;;;;7.57;84.78;96060.81;5022231;28;20054;-57
2023/04/01 04:49:37;;;;;;;0.60;0.60;;;;;;;7.86;84.12;96081.25;5023209;28;20059;-62
2023/04/01 04:52:03;;;;;;;0.60;0.60;;;;;;;7.71;83.12;96032.63;5023429;28;20270;-57
2023/04/01 04:54:30;;;;;;;0.60;0.60;;;;;;;7.28;81.59;95964.41;5023429;28;20079;-61
2023/04/01 04:56:57;;;;;;;0.60;0.60;;;;;;;7.99;82.47;96054.19;5023683;28;20092;-57
2023/04/01 04:59:24;;;;;;;0.70;0.70;;;;;;;8.22;82.01;96052.09;5021833;28;20064;-59
2023/04/01 05:01:50;;;;;;;0.60;0.60;;;;;;;8.25;81.08;96001.72;5023747;28;20111;-60
2023/04/01 05:04:17;;;;;;;0.63;0.63;;;;;;;8.61;79.45;96054.06;5026833;28;20526;-58
2023/04/01 05:06:44;;;;;;;0.80;0.80;;;;;;;8.64;78.41;96058.03;5017545;28;20188;-57
2023/04/01 05:09:11;;;;;;;0.70;0.70;;;;;;;8.11;78.80;96012.59;5007142;28;20124;-61
2023/04/01 05:11:38;;;;;;;0.60;0.60;;;;;;;8.36;80.50;96053.03;5005807;28;20060;-62
2023/04/01 05:14:05;;;;;;;0.70;0.70;;;;;;;8.39;80.64;96057.00;5005870;28;20062;-58
2023/04/01 05:16:31;;;;;;;0.60;0.60;;;;;;;8.50;80.28;96068.94;4991004;28;20646;-57
2023/04/01 05:18:58;;;;;;;0.63;0.63;;;;;;;8.58;80.21;96045.75;4987413;28;20090;-57
2023/04/01 05:21:25;;;;;;;0.60;0.60;;;;;;;8.01;80.73;95952.59;4987376;28;20062;-62
2023/04/01 05:23:51;;;;;;;0.70;0.70;;;;;;;8.73;81.18;96050.19;4987092;28;20580;-56
2023/04/01 05:26:18;;;;;;;0.70;0.70;;;;;;;8.84;81.33;96051.88;4987527;28;20082;-57
2023/04/01 05:28:45;;;;;;;0.70;0.70;;;;;;;9.08;80.07;96044.94;4987282;28;20177;-61
2023/04/01 05:31:11;;;;;;;0.70;0.70;;;;;;;9.33;78.40;96032.06;5002001;28;20133;-62
2023/04/01 05:33:38;;;;;;;0.70;0.70;;;;;;;9.06;79.09;95989.28;4987086;28;20580;-61
2023/04/01 05:36:07;;;;;;;0.70;0.70;;;;;;;9.57;78.13;96022.31;5001719;28;20046;-57
2023/04/01 05:38:34;;;;;;;0.70;0.70;;;;;;;9.79;77.30;96027.53;4987073;28;20054;-58
2023/04/01 05:41:02;;;;;;;0.80;0.80;;;;;;;9.91;76.12;96021.63;4986831;28;20518;-61
2023/04/01 05:43:29;;;;;;;0.80;0.80;;;;;;;10.15;76.46;96032.00;4986752;28;20133;-62
2023/04/01 05:45:57;;;;;;;0.70;0.70;;;;;;;10.17;75.11;96029.66;4986662;28;20053;-61
2023/04/01 05:48:23;;;;;;;0.70;0.70;;;;;;;10.22;75.19;96012.66;4986736;28;20064;-60
2023/04/01 05:50:50;;;;;;;0.80;0.80;;;;;;;10.30;74.38;95989.34;4986089;28;20112;-61
2023/04/01 05:53:17;;;;;;;0.80;0.80;;;;;;;10.34;75.34;96003.97;5001492;28;20054;-62
2023/04/01 05:55:43;;;;;;;0.80;0.80;;;;;;;10.45;75.77;95999.22;4986085;28;20101;-61
2023/04/01 05:58:10;;;;;;;0.80;0.80;;;;;;;10.45;76.04;95999.22;4986933;28;20058;-61
2023/04/01 06:00:38;;;;;;;0.88;0.88;;;;;;;10.49;76.00;95990.94;4986645;28;20077;-58
2023/04/01 06:03:05;;;;;;;0.80;0.80;;;;;;;10.49;76.53;96002.81;4986686;28;20574;-59
2023/04/01 06:05:41;;;;;;;0.90;0.90;;;;;;;10.56;76.32;95997.25;5000998;28;20078;-58
2023/04/01 06:08:16;;;;;;;0.88;0.88;;;;;;;10.62;76.31;96006.75;5022335;28;20050;-64
2023/04/01 06:10:59;;;;;;;0.80;0.80;;;;;;;10.68;77.10;95987.78;4994916;28;20045;-57
2023/04/01 06:13:51;;;;;;;0.90;0.90;;;;;;;10.82;77.22;95989.72;5000813;28;20047;-60
2023/04/01 06:16:42;;;;;;;0.88;0.88;;;;;;;10.82;77.37;95978.66;4986249;28;20108;-58
2023/04/01 06:19:26;;;;;;;0.90;0.90;;;;;;;10.07;80.05;95968.75;4985808;28;20057;-56
2023/04/01 06:22:01;;;;;;;0.80;0.80;;;;;;;9.71;82.49;95973.38;4986396;28;20050;-57
2023/04/01 06:24:48;;;;;;;0.70;0.70;;;;;;;9.88;82.86;95956.03;4989071;28;20081;-54
2023/04/01 06:27:26;;;;;;;0.80;0.80;;;;;;;10.45;80.96;95979.84;5018500;28;20066;-56
2023/04/01 06:30:24;;;;;;;0.85;0.85;;;;;;;10.87;78.35;95978.25;5005171;28;20149;-57
2023/04/01 06:33:12;;;;;;;0.90;0.90;;;;;;;11.01;77.72;95964.38;5004102;28;20136;-57
2023/04/01 06:35:50;;;;;;;0.90;0.90;;;;;;;10.94;77.89;95950.56;5005185;28;20414;-57
2023/04/01 06:38:29;;;;;;;0.82;0.82;;;;;;;10.16;79.94;95889.69;5002922;28;20139;-55
2023/04/01 06:41:21;;;;;;;0.80;0.80;;;;;;;10.60;80.46;95958.50;5003304;28;20057;-57
2023/04/01 06:43:55;;;;;;;0.88;0.88;;;;;;;10.17;78.84;95894.06;5004819;28;20544;-62
2023/04/01 06:46:46;;;;;;;0.80;0.80;;;;;;;8.70;86.82;95874.31;4992152;28;20057;-56
2023/04/01 06:49:34;;;;;;;0.70;0.70;;;;;;;9.25;86.65;95947.53;5000533;28;20062;-58
2023/04/01 06:52:25;;;;;;;0.70;0.70;;;;;;;9.85;84.12;95967.88;4985433;28;20049;-55
2023/04/01 06:55:01;;;;;;;0.73;0.73;;;;;;;10.05;82.51;95971.88;4985897;28;20084;-56
2023/04/01 06:57:37;;;;;;;0.80;0.80;;;;;;;8.93;80.95;95747.81;5000026;28;20057;-60
2023/04/01 07:00:13;;;;;;;0.80;0.80;;;;;;;9.84;79.03;95843.84;5002065;28;20525;-56
2023/04/01 07:02:58;;;;;;;0.80;0.80;;;;;;;10.46;79.21;95909.44;4988456;28;20615;-57
2023/04/01 07:05:31;;;;;;;0.80;0.80;;;;;;;11.03;77.05;95939.84;5014652;28;20084;-64
2023/04/01 07:08:04;;;;;;;0.90;0.90;;;;;;;11.22;77.25;95939.38;5003217;28;20064;-58
2023/04/01 07:11:04;;;;;;;0.85;0.85;;;;;;;11.49;75.47;95943.25;5004530;28;20076;-59
2023/04/01 07:13:52;;;;;;;0.90;0.90;;;;;;;11.64;74.52;95939.22;4999314;28;20081;-57
2023/04/01 07:16:36;;;;;;;1.00;1.00;;;;;;;11.75;74.08;95940.75;4984929;28;20425;-56
2023/04/01 07:19:30;;;;;;;0.95;0.95;;;;;;;12.09;72.79;95952.81;5014199;28;20046;-57
2023/04/01 07:21:59;;;;;;;;;;;;;;;12.38;71.42;95956.19;4994318;28;20104;-64
2023/04/01 07:24:31;;;;;;;0.90;0.90;;;;;;;12.28;72.26;95954.31;4987743;28;19929;-55
2023/04/01 07:26:59;;;;;;;0.90;0.90;;;;;;;11.81;70.99;95863.44;5003308;28;20057;-60
2023/04/01 07:29:26;;;;;;;1.00;1.00;;;;;;;12.58;71.05;95940.59;4989276;28;20322;-65
2023/04/01 07:32:18;;;;;;;1.00;1.00;;;;;;;13.12;70.18;95934.09;4984323;28;20050;-57
2023/04/01 07:35:00;;;;;;;1.10;1.10;;;;;;;13.47;68.47;95928.13;4983996;28;20116;-60
2023/04/01 07:37:52;;;;;;;1.20;1.20;;;;;;;13.58;65.68;95884.28;4992053;28;20074;-57
2023/04/01 07:40:19;;;;;;;1.20;1.20;;;;;;;14.06;64.63;95922.97;4992117;28;20490;-61
2023/04/01 07:43:27;;;;;;;1.30;1.30;;;;;;;14.18;64.20;95932.75;4996889;28;20386;-62
2023/04/01 07:46:30;;;;;;;1.23;1.23;;;;;;;14.15;64.39;95925.22;5007069;28;20132;-60
2023/04/01 07:49:01;;;;;;;1.20;1.20;;;;;;;14.26;63.07;95915.53;4988777;28;20056;-57
2023/04/01 07:51:37;;;;;;;1.20;1.20;;;;;;;14.22;63.02;95978.06;5001596;28;20680;-58
2023/04/01 07:54:24;;;;;;;1.30;1.30;;;;;;;14.98;60.92;95900.75;5000146;28;20077;-61
2023/04/01 07:56:54;;;;;;;1.38;1.38;;;;;;;15.47;59.59;95913.00;4990523;28;20129;-60
2023/04/01 07:59:45;;;;;;;1.40;1.40;;;;;;;15.64;58.76;95906.28;4989847;28;20462;-60
2023/04/01 08:02:28;;;;;;;1.20;1.20;;;;;;;15.30;59.38;95902.94;4999302;28;20097;-61
2023/04/01 08:05:10;;;;;;;1.23;1.23;;;;;;;15.38;59.75;95971.38;4993035;28;20411;-62
2023/04/01 08:07:45;;;;;;;1.40;1.40;;;;;;;14.87;61.50;95902.19;4975571;28;20054;-58
2023/04/01 08:10:35;;;;;;;1.48;1.48;;;;;;;15.91;59.00;95898.50;4991626;28;20703;-58
2023/04/01 08:13:09;;;;;;;1.50;1.50;;;;;;;15.78;58.68;95889.22;4991482;28;20104;-56
2023/04/01 08:15:46;;;;;;;1.50;1.50;;;;;;;14.64;61.26;95799.06;4984489;28;20046;-59
2023/04/01 08:18:19;;;;;;;1.50;1.50;;;;;;;15.55;60.54;95869.78;4984957;28;20093;-62
2023/04/01 08:20:48;;;;;;;1.42;1.42;;;;;;;15.71;60.89;95872.59;4989723;28;20678;-61
2023/04/01 08:23:27;;;;;;;1.50;1.50;;;;;;;15.86;59.28;95851.53;4990023;28;20046;-56
2023/04/01 08:26:10;;;;;;;1.50;1.50;;;;;;;16.48;57.75;95868.03;5005173;28;20054;-57
2023/04/01 08:29:02;;;;;;;1.35;1.35;;;;;;;15.26;60.98;95862.38;5000346;28;20483;-58
2023/04/01 08:31:40;;;;;;;1.55;1.55;;;;;;;16.08;57.38;95858.22;4983690;28;20571;-62
2023/04/01 08:34:22;;;;;;;1.50;1.50;;;;;;;16.39;56.02;95811.91;5003509;28;20061;-62
2023/04/01 08:37:00;;;;;;;1.60;1.60;;;;;;;16.08;55.36;95763.22;5002948;28;20046;-61
2023/04/01 08:39:40;;;;;;;1.60;1.60;;;;;;;15.99;56.75;95832.88;5007548;28;20094;-58
2023/04/01 08:42:32;;;;;;;1.70;1.70;;;;;;;16.26;56.36;95836.22;5004481;28;20058;-58
2023/04/01 08:45:05;;;;;;;1.50;1.50;;;;;;;15.91;57.71;95827.88;5005177;28;20046;-56
2023/04/01 08:47:55;;;;;;;1.40;1.40;;;;;;;16.70;56.34;95825.53;5007060;28;20580;-61
2023/04/01 08:50:54;;;;;;;1.70;1.70;;;;;;;17.03;55.46;95815.84;4999049;28;20537;-61
2023/04/01 08:53:47;;;;;;;1.63;1.63;;;;;;;16.85;55.02;95804.38;4988000;28;20077;-56
2023/04/01 08:56:20;;;;;;;1.60;1.60;;;;;;;16.21;56.94;95806.00;4987776;28;20061;-59
2023/04/01 08:58:52;;;;;;;1.50;1.50;;;;;;;16.55;56.07;95786.78;4987899;28;20752;-62
2023/04/01 09:01:53;;;;;;;1.70;1.70;;;;;;;17.10;55.01;95791.28;5005684;28;20123;-58
2023/04/01 09:05:11;;;;;;;1.77;1.77;;;;;;;17.18;54.11;95789.06;5005627;28;20050;-60
2023/04/01 09:07:56;;;;;;;1.63;1.63;;;;;;;15.68;58.01;95791.75;4984464;28;20859;-61
2023/04/01 09:10:45;;;;;;;1.40;1.40;;;;;;;15.22;61.27;95789.94;4990019;28;20077;-61
2023/04/01 09:13:31;;;;;;;1.55;1.55;;;;;;;15.31;60.18;95792.13;4994844;28;20521;-61
2023/04/01 09:16:01;;;;;;;1.33;1.33;;;;;;;15.09;61.76;95780.66;5001691;28;20524;-62
2023/04/01 09:18:54;;;;;;;1.30;1.30;;;;;;;14.62;63.08;95766.03;4993624;28;20441;-58
2023/04/01 09:21:48;;;;;;;1.48;1.48;;;;;;;14.98;62.96;95780.06;4991642;28;20776;-66
2023/04/01 09:24:24;;;;;;;;;;;;;;;15.10;61.75;95748.75;4999505;28;20046;-58
2023/04/01 09:26:56;;;;;;;1.33;1.33;;;;;;;15.29;61.20;95759.09;4996301;28;20401;-59
2023/04/01 09:29:55;;;;;;;1.30;1.30;;;;;;;15.18;61.18;95752.94;4997100;28;20059;-58
2023/04/01 09:32:42;;;;;;;1.48;1.48;;;;;;;15.33;61.85;95754.22;4987140;28;20050;-62
2023/04/01 09:35:31;;;;;;;1.30;1.30;;;;;;;15.58;60.43;95760.06;4984772;28;20050;-57
2023/04/01 09:38:21;;;;;;;1.33;1.33;;;;;;;15.21;61.74;95754.88;4985383;28;20062;-59
2023/04/01 09:40:58;;;;;;;1.33;1.33;;;;;;;15.12;62.40;95755.47;4988514;28;20262;-58
2023/04/01 09:43:50;;;;;;;1.30;1.30;;;;;;;15.47;60.55;95751.16;5002273;28;20057;-58
2023/04/01 09:46:54;;;;;;;1.40;1.40;;;;;;;15.47;60.43;95751.16;5004670;28;20064;-61
2023/04/01 09:49:59;;;;;;;1.48;1.48;;;;;;;15.47;60.58;95744.78;4999765;28;20929;-57
2023/04/01 09:53:04;;;;;;;;;;;;;;;16.04;58.99;95736.59;5001289;28;20078;-57
2023/04/01 09:55:45;;;;;;;1.40;1.40;;;;;;;15.56;60.30;95748.53;5000804;28;19929;-62
2023/04/01 09:58:33;;;;;;;1.40;1.40;;;;;;;15.35;60.72;95737.81;4985253;28;20571;-60
2023/04/01 10:01:27;;;;;;;1.60;1.60;;;;;;;15.93;59.56;95722.88;4989592;28;20528;-58
2023/04/01 10:04:33;;;;;;;1.30;1.30;;;;;;;15.46;60.01;95716.06;4986322;28;20064;-61
2023/04/01 10:07:24;;;;;;;1.40;1.40;;;;;;;15.77;60.16;95708.97;4981772;28;20062;-58
2023/04/01 10:10:20;;;;;;;1.58;1.58;;;;;;;15.96;59.28;95710.88;4984934;28;20145;-62
2023/04/01 10:13:08;;;;;;;1.40;1.40;;;;;;;15.74;58.94;95709.84;4982609;28;20100;-57
2023/04/01 10:15:44;;;;;;;1.60;1.60;;;;;;;15.65;60.64;95706.84;4984671;28;20137;-61
2023/04/01 10:18:45;;;;;;;1.60;1.60;;;;;;;16.19;58.58;95695.91;4983858;28;20058;-61
2023/04/01 10:21:36;;;;;;;1.40;1.40;;;;;;;16.50;57.63;95695.06;4985504;28;20057;-61
2023/04/01 10:24:25;;;;;;;1.52;1.52;;;;;;;16.88;56.73;95688.81;4985373;28;20054;-61
2023/04/01 10:27:22;;;;;;;1.40;1.40;;;;;;;16.27;57.88;95686.91;5000937;28;20544;-57
2023/04/01 10:29:58;;;;;;;1.50;1.50;;;;;;;16.96;55.90;95687.38;4985680;28;20086;-57
2023/04/01 10:32:47;;;;;;;1.60;1.60;;;;;;;17.35;54.85;95681.38;4984607;28;20055;-57
2023/04/01 10:35:37;;;;;;;1.40;1.40;;;;;;;17.79;53.66;95671.97;4984365;28;20510;-58
2023/04/01 10:38:22;;;;;;;1.60;1.60;;;;;;;17.79;53.95;95660.78;4986234;28;20513;-57
2023/04/01 10:41:14;;;;;;;1.80;1.80;;;;;;;18.30;52.64;95659.41;4985699;28;20086;-61
2023/04/01 10:43:55;;;;;;;1.98;1.98;;;;;;;18.52;51.43;95639.81;4981905;28;20054;-60
2023/04/01 10:46:25;;;;;;;2.00;2.00;;;;;;;18.82;50.95;95639.09;4985819;28;20062;-61
2023/04/01 10:49:26;;;;;;;1.90;1.90;;;;;;;18.63;51.42;95624.19;4985492;28;20154;-61
2023/04/01 10:52:21;;;;;;;2.00;2.00;;;;;;;19.11;50.09;95628.38;4984378;28;20085;-60
2023/04/01 10:54:52;;;;;;;1.92;1.92;;;;;;;18.79;50.00;95609.97;4983938;28;20425;-61
2023/04/01 10:57:21;;;;;;;2.13;2.13;;;;;;;19.08;50.12;95599.19;4985588;28;20493;-61
2023/04/01 11:00:27;;;;;;;2.13;2.13;;;;;;;18.87;50.22;95600.03;4984474;28;20112;-58
2023/04/01 11:03:20;;;;;;;1.88;1.88;;;;;;;18.42;51.25;95608.13;4981334;28;20051;-58
2023/04/01 11:06:11;;;;;;;1.83;1.83;;;;;;;19.16;50.11;95606.09;4985362;28;20115;-60
2023/04/01 11:09:03;;;;;;;2.58;2.47;;;;;;;18.58;50.94;95588.31;4999049;28;20132;-58
2023/04/01 11:11:52;;;;;;;1.75;1.75;;;;;;;18.17;52.18;95573.78;5005061;28;20489;-60
2023/04/01 11:14:36;;;;;;;2.00;2.00;;;;;;;18.37;51.21;95549.81;5004986;28;20097;-60
2023/04/01 11:17:12;;;;;;;2.03;2.03;;;;;;;18.61;51.17;95534.09;5004883;28;20411;-59
2023/04/01 11:20:08;;;;;;;1.88;1.88;;;;;;;19.07;51.07;95529.47;5004492;28;20054;-60
2023/04/01 11:23:10;;;;;;;2.00;2.00;;;;;;;18.27;51.79;95511.75;5005325;28;20402;-60
2023/04/01 11:25:51;;;;;;;1.80;1.80;;;;;;;18.69;51.87;95493.31;5003305;28;20054;-60
2023/04/01 11:28:47;;;;;;;1.85;1.85;;;;;;;18.45;51.69;95509.06;5003350;28;20116;-60
2023/04/01 11:31:34;;;;;;;1.85;1.85;;;;;;;18.25;51.87;95510.63;5004511;28;20054;-58
2023/04/01 11:34:21;;;;;;;1.83;1.83;;;;;;;18.45;52.92;95517.50;5004435;28;20410;-58
2023/04/01 11:37:12;;;;;;;2.20;2.20;;;;;;;18.92;50.59;95517.28;5004526;28;20046;-58
2023/04/01 11:39:57;;;;;;;2.20;2.20;;;;;;;18.58;52.05;95506.97;5004712;28;20141;-58
2023/04/01 11:42:40;;;;;;;1.98;1.98;;;;;;;19.39;50.77;95496.06;5003529;28;20119;-58
2023/04/01 11:45:39;;;;;;;2.20;2.20;;;;;;;19.15;50.86;95492.25;5004481;28;20050;-60
2023/04/01 11:48:43;;;;;;;2.30;2.30;;;;;;;18.64;52.64;95484.72;5002284;28;20061;-61
2023/04/01 11:51:20;;;;;;;1.80;1.80;;;;;;;19.06;52.06;95466.94;4989362;28;20156;-59
2023/04/01 11:54:12;;;;;;;1.95;1.95;;;;;;;19.45;51.72;95466.13;5023439;28;20108;-60
2023/04/01 11:57:16;;;;;;;2.03;2.03;;;;;;;19.32;52.99;95457.06;5022706;28;20335;-58
2023/04/01 11:59:43;;;;;;;2.00;2.00;;;;;;;19.43;53.21;95457.38;5020194;28;20085;-58
2023/04/01 12:02:28;;;;;;;2.05;2.05;;;;;;;19.53;54.39;95444.13;5004061;28;20058;-60
2023/04/01 12:05:32;;;;;;;2.00;2.00;;;;;;;19.39;54.22;95437.09;5004502;28;20081;-60
2023/04/01 12:08:08;;;;;;;2.10;2.10;;;;;;;19.96;53.70;95438.19;5009707;28;20171;-60
2023/04/01 12:11:05;;;;;;;2.28;2.28;;;;;;;19.75;53.30;95433.53;5023734;28;20061;-58
2023/04/01 12:14:05;;;;;;;2.10;2.10;;;;;;;19.74;53.54;95420.72;5027921;28;20558;-58
2023/04/01 12:16:51;;;;;;;2.30;2.30;;;;;;;20.29;51.68;95416.59;5027777;28;20134;-59
2023/04/01 12:19:51;;;;;;;2.20;2.20;;;;;;;20.46;51.05;95417.78;5026374;28;20091;-60
2023/04/01 12:22:36;;;;;;;2.10;2.10;;;;;;;20.22;51.65;95421.75;5021994;28;20538;-60
2023/04/01 12:25:27;;;;;;;1.95;1.95;;;;;;;20.62;50.76;95411.00;5025381;28;20049;-61
2023/04/01 12:27:54;;;;;;;2.30;2.30;;;;;;;20.63;50.31;95390.03;5025028;28;20085;-60